sensor_id;sensor_type;location;lat;lon;timestamp;P1;durP1;ratioP1;P2;durP2;ratioP2
18449;SDS011;9354;50.194;7.690;2023-02-28T00:01:11;4.77;;;1.67;;
18449;SDS011;9354;50.194;7.690;2023-02-28T00:03:39;3.80;;;1.70;;
18449;SDS011;9354;50.194;7.690;2023-02-28T00:06:09;2.60;;;1.50;;
18449;SDS011;9354;50.194;7.690;2023-02-28T00:08:37;4.70;;;1.80;;
18449;SDS011;9354;50.194;7.690;2023-02-28T00:11:06;5.30;;;1.50;;
18449;SDS011;9354;50.194;7.690;2023-02-28T00:13:36;3.00;;;1.60;;
18449;SDS011;9354;50.194;7.690;2023-02-28T00:16:06;3.60;;;1.80;;
18449;SDS011;9354;50.194;7.690;2023-02-28T00:18:34;6.40;;;1.70;;
18449;SDS011;9354;50.194;7.690;2023-02-28T00:21:04;9.63;;;1.93;;
18449;SDS011;9354;50.194;7.690;2023-02-28T00:23:33;3.20;;;1.60;;
18449;SDS011;9354;50.194;7.690;2023-02-28T00:26:01;10.83;;;2.00;;
18449;SDS011;9354;50.194;7.690;2023-02-28T00:28:29;6.17;;;2.20;;
18449;SDS011;9354;50.194;7.690;2023-02-28T00:30:57;3.50;;;2.13;;
18449;SDS011;9354;50.194;7.690;2023-02-28T00:33:25;6.03;;;2.40;;
18449;SDS011;9354;50.194;7.690;2023-02-28T00:36:00;7.40;;;2.33;;
18449;SDS011;9354;50.194;7.690;2023-02-28T00:38:32;5.37;;;2.30;;
18449;SDS011;9354;50.194;7.690;2023-02-28T00:40:59;5.63;;;2.00;;
18449;SDS011;9354;50.194;7.690;2023-02-28T00:43:30;4.03;;;2.00;;
18449;SDS011;9354;50.194;7.690;2023-02-28T00:45:59;4.33;;;2.33;;
18449;SDS011;9354;50.194;7.690;2023-02-28T00:48:27;6.93;;;2.60;;
18449;SDS011;9354;50.194;7.690;2023-02-28T00:50:55;7.97;;;2.30;;
18449;SDS011;9354;50.194;7.690;2023-02-28T00:53:24;4.47;;;2.07;;
18449;SDS011;9354;50.194;7.690;2023-02-28T00:55:52;4.00;;;2.27;;
18449;SDS011;9354;50.194;7.690;2023-02-28T00:58:20;5.87;;;2.60;;
18449;SDS011;9354;50.194;7.690;2023-02-28T01:00:49;6.10;;;2.67;;
18449;SDS011;9354;50.194;7.690;2023-02-28T01:03:18;4.93;;;2.43;;
18449;SDS011;9354;50.194;7.690;2023-02-28T01:05:48;6.57;;;2.50;;
18449;SDS011;9354;50.194;7.690;2023-02-28T01:08:15;5.17;;;2.90;;
18449;SDS011;9354;50.194;7.690;2023-02-28T01:10:45;4.17;;;2.50;;
18449;SDS011;9354;50.194;7.690;2023-02-28T01:13:13;6.57;;;2.90;;
18449;SDS011;9354;50.194;7.690;2023-02-28T01:15:42;7.97;;;3.10;;
18449;SDS011;9354;50.194;7.690;2023-02-28T01:18:13;3.87;;;2.40;;
18449;SDS011;9354;50.194;7.690;2023-02-28T01:20:40;6.83;;;2.70;;
18449;SDS011;9354;50.194;7.690;2023-02-28T01:23:08;6.30;;;2.90;;
18449;SDS011;9354;50.194;7.690;2023-02-28T01:25:37;6.47;;;3.23;;
18449;SDS011;9354;50.194;7.690;2023-02-28T01:28:07;5.57;;;2.77;;
18449;SDS011;9354;50.194;7.690;2023-02-28T01:30:34;7.47;;;3.30;;
18449;SDS011;9354;50.194;7.690;2023-02-28T01:33:02;5.23;;;2.60;;
18449;SDS011;9354;50.194;7.690;2023-02-28T01:35:31;6.07;;;3.00;;
18449;SDS011;9354;50.194;7.690;2023-02-28T01:37:59;4.73;;;3.00;;
18449;SDS011;9354;50.194;7.690;2023-02-28T01:40:28;5.40;;;2.87;;
18449;SDS011;9354;50.194;7.690;2023-02-28T01:42:56;5.90;;;3.20;;
18449;SDS011;9354;50.194;7.690;2023-02-28T01:45:27;8.13;;;3.53;;
18449;SDS011;9354;50.194;7.690;2023-02-28T01:47:57;6.90;;;3.37;;
18449;SDS011;9354;50.194;7.690;2023-02-28T01:50:28;10.67;;;3.40;;
18449;SDS011;9354;50.194;7.690;2023-02-28T01:53:00;4.83;;;2.53;;
18449;SDS011;9354;50.194;7.690;2023-02-28T01:55:31;5.40;;;2.80;;
18449;SDS011;9354;50.194;7.690;2023-02-28T01:58:00;6.07;;;3.53;;
18449;SDS011;9354;50.194;7.690;2023-02-28T02:00:31;8.93;;;3.57;;
18449;SDS011;9354;50.194;7.690;2023-02-28T02:02:59;9.50;;;3.20;;
18449;SDS011;9354;50.194;7.690;2023-02-28T02:05:32;7.30;;;3.37;;
18449;SDS011;9354;50.194;7.690;2023-02-28T02:08:01;7.87;;;3.47;;
18449;SDS011;9354;50.194;7.690;2023-02-28T02:10:32;6.10;;;3.53;;
18449;SDS011;9354;50.194;7.690;2023-02-28T02:13:14;8.20;;;4.00;;
18449;SDS011;9354;50.194;7.690;2023-02-28T02:16:00;8.33;;;3.80;;
18449;SDS011;9354;50.194;7.690;2023-02-28T02:18:39;7.87;;;3.73;;
18449;SDS011;9354;50.194;7.690;2023-02-28T02:21:19;6.87;;;3.80;;
18449;SDS011;9354;50.194;7.690;2023-02-28T02:27:16;6.60;;;3.67;;
18449;SDS011;9354;50.194;7.690;2023-02-28T02:33:04;7.53;;;3.60;;
18449;SDS011;9354;50.194;7.690;2023-02-28T02:35:45;8.57;;;4.40;;
18449;SDS011;9354;50.194;7.690;2023-02-28T02:38:18;8.33;;;3.40;;
18449;SDS011;9354;50.194;7.690;2023-02-28T02:40:57;9.70;;;4.30;;
18449;SDS011;9354;50.194;7.690;2023-02-28T02:43:33;7.33;;;3.40;;
18449;SDS011;9354;50.194;7.690;2023-02-28T02:46:04;7.10;;;4.03;;
18449;SDS011;9354;50.194;7.690;2023-02-28T02:48:38;10.00;;;3.53;;
18449;SDS011;9354;50.194;7.690;2023-02-28T02:51:10;8.13;;;4.60;;
18449;SDS011;9354;50.194;7.690;2023-02-28T02:53:44;6.77;;;3.63;;
18449;SDS011;9354;50.194;7.690;2023-02-28T02:56:17;15.53;;;4.40;;
18449;SDS011;9354;50.194;7.690;2023-02-28T02:58:47;8.10;;;4.20;;
18449;SDS011;9354;50.194;7.690;2023-02-28T03:01:18;7.53;;;3.83;;
18449;SDS011;9354;50.194;7.690;2023-02-28T03:03:54;9.70;;;4.13;;
18449;SDS011;9354;50.194;7.690;2023-02-28T03:06:25;9.43;;;3.93;;
18449;SDS011;9354;50.194;7.690;2023-02-28T03:08:53;7.00;;;3.53;;
18449;SDS011;9354;50.194;7.690;2023-02-28T03:11:21;4.67;;;3.03;;
18449;SDS011;9354;50.194;7.690;2023-02-28T03:16:49;6.30;;;3.57;;
18449;SDS011;9354;50.194;7.690;2023-02-28T03:19:39;7.93;;;4.03;;
18449;SDS011;9354;50.194;7.690;2023-02-28T03:22:18;4.93;;;2.93;;
18449;SDS011;9354;50.194;7.690;2023-02-28T03:24:57;9.00;;;4.47;;
18449;SDS011;9354;50.194;7.690;2023-02-28T03:27:35;8.30;;;4.23;;
18449;SDS011;9354;50.194;7.690;2023-02-28T03:30:10;9.73;;;4.50;;
18449;SDS011;9354;50.194;7.690;2023-02-28T03:32:45;7.73;;;4.20;;
18449;SDS011;9354;50.194;7.690;2023-02-28T03:35:19;8.60;;;4.53;;
18449;SDS011;9354;50.194;7.690;2023-02-28T03:37:52;12.47;;;4.63;;
18449;SDS011;9354;50.194;7.690;2023-02-28T03:40:24;7.40;;;3.77;;
18449;SDS011;9354;50.194;7.690;2023-02-28T03:42:59;11.37;;;4.40;;
18449;SDS011;9354;50.194;7.690;2023-02-28T03:45:32;8.17;;;4.13;;
18449;SDS011;9354;50.194;7.690;2023-02-28T03:48:04;9.87;;;4.70;;
18449;SDS011;9354;50.194;7.690;2023-02-28T03:50:36;6.07;;;3.60;;
18449;SDS011;9354;50.194;7.690;2023-02-28T03:53:08;5.83;;;3.27;;
18449;SDS011;9354;50.194;7.690;2023-02-28T03:55:41;9.33;;;3.67;;
18449;SDS011;9354;50.194;7.690;2023-02-28T03:58:12;7.53;;;4.00;;
18449;SDS011;9354;50.194;7.690;2023-02-28T04:00:48;7.97;;;4.00;;
18449;SDS011;9354;50.194;7.690;2023-02-28T04:03:20;6.50;;;3.37;;
18449;SDS011;9354;50.194;7.690;2023-02-28T04:05:49;4.50;;;2.90;;
18449;SDS011;9354;50.194;7.690;2023-02-28T04:08:20;6.73;;;3.60;;
18449;SDS011;9354;50.194;7.690;2023-02-28T04:10:50;7.33;;;3.30;;
18449;SDS011;9354;50.194;7.690;2023-02-28T04:13:22;6.33;;;3.73;;
18449;SDS011;9354;50.194;7.690;2023-02-28T04:15:50;6.70;;;3.50;;
18449;SDS011;9354;50.194;7.690;2023-02-28T04:18:18;6.63;;;3.80;;
18449;SDS011;9354;50.194;7.690;2023-02-28T04:20:47;6.70;;;3.80;;
18449;SDS011;9354;50.194;7.690;2023-02-28T04:23:15;6.10;;;3.93;;
18449;SDS011;9354;50.194;7.690;2023-02-28T04:25:44;5.33;;;3.43;;
18449;SDS011;9354;50.194;7.690;2023-02-28T04:28:11;7.93;;;4.03;;
18449;SDS011;9354;50.194;7.690;2023-02-28T04:30:39;6.33;;;3.80;;
18449;SDS011;9354;50.194;7.690;2023-02-28T04:33:07;9.00;;;4.43;;
18449;SDS011;9354;50.194;7.690;2023-02-28T04:35:35;11.20;;;3.67;;
18449;SDS011;9354;50.194;7.690;2023-02-28T04:38:03;8.20;;;4.23;;
18449;SDS011;9354;50.194;7.690;2023-02-28T04:40:32;8.23;;;4.13;;
18449;SDS011;9354;50.194;7.690;2023-02-28T04:43:01;10.97;;;4.27;;
18449;SDS011;9354;50.194;7.690;2023-02-28T04:45:30;6.53;;;3.50;;
18449;SDS011;9354;50.194;7.690;2023-02-28T04:47:59;7.03;;;3.73;;
18449;SDS011;9354;50.194;7.690;2023-02-28T04:50:27;10.33;;;3.30;;
18449;SDS011;9354;50.194;7.690;2023-02-28T04:52:55;6.93;;;4.03;;
18449;SDS011;9354;50.194;7.690;2023-02-28T04:55:23;6.03;;;3.30;;
18449;SDS011;9354;50.194;7.690;2023-02-28T04:57:51;13.90;;;4.53;;
18449;SDS011;9354;50.194;7.690;2023-02-28T05:00:21;6.60;;;4.13;;
18449;SDS011;9354;50.194;7.690;2023-02-28T05:02:52;7.23;;;4.00;;
18449;SDS011;9354;50.194;7.690;2023-02-28T05:05:19;5.67;;;3.20;;
18449;SDS011;9354;50.194;7.690;2023-02-28T05:07:47;8.80;;;4.07;;
18449;SDS011;9354;50.194;7.690;2023-02-28T05:10:16;8.30;;;4.37;;
18449;SDS011;9354;50.194;7.690;2023-02-28T05:12:45;4.93;;;2.83;;
18449;SDS011;9354;50.194;7.690;2023-02-28T05:15:13;8.30;;;4.03;;
18449;SDS011;9354;50.194;7.690;2023-02-28T05:17:44;9.63;;;4.80;;
18449;SDS011;9354;50.194;7.690;2023-02-28T05:20:12;8.50;;;3.90;;
18449;SDS011;9354;50.194;7.690;2023-02-28T05:22:42;7.67;;;4.23;;
18449;SDS011;9354;50.194;7.690;2023-02-28T05:25:10;8.27;;;4.37;;
18449;SDS011;9354;50.194;7.690;2023-02-28T05:27:40;9.20;;;4.37;;
18449;SDS011;9354;50.194;7.690;2023-02-28T05:30:09;8.67;;;4.30;;
18449;SDS011;9354;50.194;7.690;2023-02-28T05:32:38;7.93;;;4.10;;
18449;SDS011;9354;50.194;7.690;2023-02-28T05:35:10;11.27;;;4.47;;
18449;SDS011;9354;50.194;7.690;2023-02-28T05:37:38;7.10;;;3.87;;
18449;SDS011;9354;50.194;7.690;2023-02-28T05:40:07;10.97;;;4.50;;
18449;SDS011;9354;50.194;7.690;2023-02-28T05:42:37;9.07;;;4.60;;
18449;SDS011;9354;50.194;7.690;2023-02-28T05:45:05;11.23;;;4.90;;
18449;SDS011;9354;50.194;7.690;2023-02-28T05:47:34;9.10;;;4.00;;
18449;SDS011;9354;50.194;7.690;2023-02-28T05:50:02;8.70;;;3.70;;
18449;SDS011;9354;50.194;7.690;2023-02-28T05:52:32;8.87;;;4.40;;
18449;SDS011;9354;50.194;7.690;2023-02-28T05:55:00;9.87;;;4.07;;
18449;SDS011;9354;50.194;7.690;2023-02-28T05:57:29;6.70;;;3.93;;
18449;SDS011;9354;50.194;7.690;2023-02-28T05:59:56;9.40;;;4.10;;
18449;SDS011;9354;50.194;7.690;2023-02-28T06:02:24;8.27;;;3.23;;
18449;SDS011;9354;50.194;7.690;2023-02-28T06:04:52;10.27;;;3.80;;
18449;SDS011;9354;50.194;7.690;2023-02-28T06:07:19;9.17;;;3.57;;
18449;SDS011;9354;50.194;7.690;2023-02-28T06:09:49;8.33;;;3.27;;
18449;SDS011;9354;50.194;7.690;2023-02-28T06:12:17;8.60;;;3.93;;
18449;SDS011;9354;50.194;7.690;2023-02-28T06:14:45;5.60;;;3.33;;
18449;SDS011;9354;50.194;7.690;2023-02-28T06:17:12;8.87;;;3.83;;
18449;SDS011;9354;50.194;7.690;2023-02-28T06:19:40;9.30;;;3.07;;
18449;SDS011;9354;50.194;7.690;2023-02-28T06:22:08;11.23;;;4.33;;
18449;SDS011;9354;50.194;7.690;2023-02-28T06:24:36;8.30;;;4.60;;
18449;SDS011;9354;50.194;7.690;2023-02-28T06:27:05;8.40;;;3.80;;
18449;SDS011;9354;50.194;7.690;2023-02-28T06:29:33;11.07;;;4.80;;
18449;SDS011;9354;50.194;7.690;2023-02-28T06:32:05;8.37;;;4.23;;
18449;SDS011;9354;50.194;7.690;2023-02-28T06:34:33;8.73;;;4.77;;
18449;SDS011;9354;50.194;7.690;2023-02-28T06:37:01;9.40;;;4.63;;
18449;SDS011;9354;50.194;7.690;2023-02-28T06:39:29;9.83;;;4.10;;
18449;SDS011;9354;50.194;7.690;2023-02-28T06:41:57;8.37;;;4.33;;
18449;SDS011;9354;50.194;7.690;2023-02-28T06:44:26;8.23;;;4.50;;
18449;SDS011;9354;50.194;7.690;2023-02-28T06:47:00;10.27;;;4.80;;
18449;SDS011;9354;50.194;7.690;2023-02-28T06:49:29;10.33;;;3.70;;
18449;SDS011;9354;50.194;7.690;2023-02-28T06:51:57;14.00;;;4.17;;
18449;SDS011;9354;50.194;7.690;2023-02-28T06:54:25;11.37;;;4.50;;
18449;SDS011;9354;50.194;7.690;2023-02-28T06:56:53;5.03;;;2.87;;
18449;SDS011;9354;50.194;7.690;2023-02-28T06:59:21;8.03;;;4.20;;
18449;SDS011;9354;50.194;7.690;2023-02-28T07:01:50;5.40;;;3.43;;
18449;SDS011;9354;50.194;7.690;2023-02-28T07:04:19;8.70;;;3.90;;
18449;SDS011;9354;50.194;7.690;2023-02-28T07:06:48;7.63;;;4.07;;
18449;SDS011;9354;50.194;7.690;2023-02-28T07:09:16;7.30;;;3.40;;
18449;SDS011;9354;50.194;7.690;2023-02-28T07:11:44;8.40;;;4.70;;
18449;SDS011;9354;50.194;7.690;2023-02-28T07:14:12;8.23;;;4.77;;
18449;SDS011;9354;50.194;7.690;2023-02-28T07:16:40;8.13;;;4.20;;
18449;SDS011;9354;50.194;7.690;2023-02-28T07:19:10;7.80;;;4.10;;
18449;SDS011;9354;50.194;7.690;2023-02-28T07:21:38;9.50;;;4.97;;
18449;SDS011;9354;50.194;7.690;2023-02-28T07:24:06;8.17;;;4.33;;
18449;SDS011;9354;50.194;7.690;2023-02-28T07:26:34;7.93;;;4.40;;
18449;SDS011;9354;50.194;7.690;2023-02-28T07:29:02;8.73;;;4.30;;
18449;SDS011;9354;50.194;7.690;2023-02-28T07:31:30;7.60;;;4.23;;
18449;SDS011;9354;50.194;7.690;2023-02-28T07:33:58;9.57;;;4.07;;
18449;SDS011;9354;50.194;7.690;2023-02-28T07:36:27;8.60;;;4.23;;
18449;SDS011;9354;50.194;7.690;2023-02-28T07:38:55;8.17;;;4.60;;
18449;SDS011;9354;50.194;7.690;2023-02-28T07:41:25;7.30;;;4.40;;
18449;SDS011;9354;50.194;7.690;2023-02-28T07:43:55;10.87;;;3.83;;
18449;SDS011;9354;50.194;7.690;2023-02-28T07:46:25;8.13;;;4.13;;
18449;SDS011;9354;50.194;7.690;2023-02-28T07:48:54;6.17;;;4.30;;
18449;SDS011;9354;50.194;7.690;2023-02-28T07:51:24;8.17;;;4.13;;
18449;SDS011;9354;50.194;7.690;2023-02-28T07:53:54;5.93;;;3.57;;
18449;SDS011;9354;50.194;7.690;2023-02-28T07:56:22;6.83;;;3.67;;
18449;SDS011;9354;50.194;7.690;2023-02-28T07:58:50;8.00;;;3.40;;
18449;SDS011;9354;50.194;7.690;2023-02-28T08:01:18;5.30;;;3.33;;
18449;SDS011;9354;50.194;7.690;2023-02-28T08:03:46;9.07;;;4.07;;
18449;SDS011;9354;50.194;7.690;2023-02-28T08:06:18;6.17;;;3.43;;
18449;SDS011;9354;50.194;7.690;2023-02-28T08:08:47;5.33;;;3.27;;
18449;SDS011;9354;50.194;7.690;2023-02-28T08:11:18;6.50;;;3.20;;
18449;SDS011;9354;50.194;7.690;2023-02-28T08:13:46;4.60;;;3.00;;
18449;SDS011;9354;50.194;7.690;2023-02-28T08:16:14;4.80;;;3.13;;
18449;SDS011;9354;50.194;7.690;2023-02-28T08:18:48;5.97;;;3.40;;
18449;SDS011;9354;50.194;7.690;2023-02-28T08:21:17;5.70;;;2.73;;
18449;SDS011;9354;50.194;7.690;2023-02-28T08:23:46;3.80;;;2.70;;
18449;SDS011;9354;50.194;7.690;2023-02-28T08:26:14;7.33;;;2.93;;
18449;SDS011;9354;50.194;7.690;2023-02-28T08:28:44;5.17;;;3.00;;
18449;SDS011;9354;50.194;7.690;2023-02-28T08:31:12;4.87;;;2.70;;
18449;SDS011;9354;50.194;7.690;2023-02-28T08:33:42;6.23;;;3.20;;
18449;SDS011;9354;50.194;7.690;2023-02-28T08:36:11;4.43;;;2.93;;
18449;SDS011;9354;50.194;7.690;2023-02-28T08:38:39;4.40;;;2.93;;
18449;SDS011;9354;50.194;7.690;2023-02-28T08:41:08;5.03;;;3.00;;
18449;SDS011;9354;50.194;7.690;2023-02-28T08:43:38;4.63;;;2.67;;
18449;SDS011;9354;50.194;7.690;2023-02-28T08:46:08;5.13;;;2.63;;
18449;SDS011;9354;50.194;7.690;2023-02-28T08:48:39;5.93;;;3.00;;
18449;SDS011;9354;50.194;7.690;2023-02-28T08:51:08;7.03;;;2.83;;
18449;SDS011;9354;50.194;7.690;2023-02-28T08:53:38;4.67;;;2.97;;
18449;SDS011;9354;50.194;7.690;2023-02-28T08:56:07;6.27;;;2.70;;
18449;SDS011;9354;50.194;7.690;2023-02-28T08:58:36;5.27;;;2.87;;
18449;SDS011;9354;50.194;7.690;2023-02-28T09:01:09;2.73;;;1.87;;
18449;SDS011;9354;50.194;7.690;2023-02-28T09:03:39;5.13;;;2.43;;
18449;SDS011;9354;50.194;7.690;2023-02-28T09:06:08;3.93;;;2.60;;
18449;SDS011;9354;50.194;7.690;2023-02-28T09:08:37;5.07;;;2.60;;
18449;SDS011;9354;50.194;7.690;2023-02-28T09:11:06;4.03;;;2.50;;
18449;SDS011;9354;50.194;7.690;2023-02-28T09:13:35;6.17;;;3.13;;
18449;SDS011;9354;50.194;7.690;2023-02-28T09:16:03;3.17;;;2.33;;
18449;SDS011;9354;50.194;7.690;2023-02-28T09:18:36;3.77;;;2.40;;
18449;SDS011;9354;50.194;7.690;2023-02-28T09:21:05;5.77;;;2.90;;
18449;SDS011;9354;50.194;7.690;2023-02-28T09:23:34;4.63;;;2.60;;
18449;SDS011;9354;50.194;7.690;2023-02-28T09:26:03;6.67;;;2.67;;
18449;SDS011;9354;50.194;7.690;2023-02-28T09:28:32;5.77;;;2.60;;
18449;SDS011;9354;50.194;7.690;2023-02-28T09:31:00;7.63;;;2.60;;
18449;SDS011;9354;50.194;7.690;2023-02-28T09:33:30;5.13;;;2.60;;
18449;SDS011;9354;50.194;7.690;2023-02-28T09:36:02;4.53;;;2.83;;
18449;SDS011;9354;50.194;7.690;2023-02-28T09:38:30;3.33;;;1.70;;
18449;SDS011;9354;50.194;7.690;2023-02-28T09:41:00;7.23;;;3.13;;
18449;SDS011;9354;50.194;7.690;2023-02-28T09:43:32;4.77;;;2.20;;
18449;SDS011;9354;50.194;7.690;2023-02-28T09:46:06;7.03;;;2.53;;
18449;SDS011;9354;50.194;7.690;2023-02-28T09:48:39;4.13;;;2.27;;
18449;SDS011;9354;50.194;7.690;2023-02-28T09:51:14;4.20;;;2.43;;
18449;SDS011;9354;50.194;7.690;2023-02-28T09:53:53;4.37;;;2.40;;
18449;SDS011;9354;50.194;7.690;2023-02-28T09:56:21;3.97;;;2.20;;
18449;SDS011;9354;50.194;7.690;2023-02-28T09:58:53;3.53;;;2.17;;
18449;SDS011;9354;50.194;7.690;2023-02-28T10:01:28;3.37;;;2.20;;
18449;SDS011;9354;50.194;7.690;2023-02-28T10:04:04;4.67;;;2.50;;
18449;SDS011;9354;50.194;7.690;2023-02-28T10:06:41;3.97;;;1.80;;
18449;SDS011;9354;50.194;7.690;2023-02-28T10:09:15;6.50;;;2.50;;
18449;SDS011;9354;50.194;7.690;2023-02-28T10:11:46;4.67;;;2.30;;
18449;SDS011;9354;50.194;7.690;2023-02-28T10:14:15;4.83;;;2.40;;
18449;SDS011;9354;50.194;7.690;2023-02-28T10:16:46;5.87;;;2.87;;
18449;SDS011;9354;50.194;7.690;2023-02-28T10:19:22;6.97;;;2.77;;
18449;SDS011;9354;50.194;7.690;2023-02-28T10:21:59;5.60;;;2.30;;
18449;SDS011;9354;50.194;7.690;2023-02-28T10:24:31;9.40;;;2.63;;
18449;SDS011;9354;50.194;7.690;2023-02-28T10:27:06;7.67;;;2.13;;
18449;SDS011;9354;50.194;7.690;2023-02-28T10:29:42;3.77;;;2.43;;
18449;SDS011;9354;50.194;7.690;2023-02-28T10:32:13;4.97;;;2.37;;
18449;SDS011;9354;50.194;7.690;2023-02-28T10:34:43;5.33;;;2.80;;
18449;SDS011;9354;50.194;7.690;2023-02-28T10:37:13;5.90;;;2.63;;
18449;SDS011;9354;50.194;7.690;2023-02-28T10:39:41;5.27;;;2.90;;
18449;SDS011;9354;50.194;7.690;2023-02-28T10:42:19;8.77;;;3.40;;
18449;SDS011;9354;50.194;7.690;2023-02-28T10:47:40;4.70;;;2.43;;
18449;SDS011;9354;50.194;7.690;2023-02-28T10:50:27;5.13;;;2.80;;
18449;SDS011;9354;50.194;7.690;2023-02-28T10:53:29;6.87;;;3.00;;
18449;SDS011;9354;50.194;7.690;2023-02-28T10:56:03;5.90;;;3.13;;
18449;SDS011;9354;50.194;7.690;2023-02-28T10:58:42;6.50;;;2.70;;
18449;SDS011;9354;50.194;7.690;2023-02-28T11:01:16;6.70;;;2.87;;
18449;SDS011;9354;50.194;7.690;2023-02-28T11:03:45;5.50;;;2.80;;
18449;SDS011;9354;50.194;7.690;2023-02-28T11:06:18;6.77;;;3.00;;
18449;SDS011;9354;50.194;7.690;2023-02-28T11:08:50;7.53;;;2.90;;
18449;SDS011;9354;50.194;7.690;2023-02-28T11:11:21;7.03;;;3.30;;
18449;SDS011;9354;50.194;7.690;2023-02-28T11:13:52;4.83;;;3.10;;
18449;SDS011;9354;50.194;7.690;2023-02-28T11:16:29;5.77;;;3.03;;
18449;SDS011;9354;50.194;7.690;2023-02-28T11:19:00;5.07;;;2.97;;
18449;SDS011;9354;50.194;7.690;2023-02-28T11:21:32;7.90;;;3.37;;
18449;SDS011;9354;50.194;7.690;2023-02-28T11:24:12;6.70;;;2.80;;
18449;SDS011;9354;50.194;7.690;2023-02-28T11:26:47;4.43;;;2.60;;
18449;SDS011;9354;50.194;7.690;2023-02-28T11:29:17;5.70;;;2.97;;
18449;SDS011;9354;50.194;7.690;2023-02-28T11:32:01;6.10;;;3.37;;
18449;SDS011;9354;50.194;7.690;2023-02-28T11:34:37;6.90;;;3.83;;
18449;SDS011;9354;50.194;7.690;2023-02-28T11:37:09;4.57;;;2.80;;
18449;SDS011;9354;50.194;7.690;2023-02-28T11:39:42;6.20;;;3.07;;
18449;SDS011;9354;50.194;7.690;2023-02-28T11:45:14;10.53;;;3.10;;
18449;SDS011;9354;50.194;7.690;2023-02-28T11:47:49;7.13;;;3.00;;
18449;SDS011;9354;50.194;7.690;2023-02-28T11:50:40;5.17;;;2.50;;
18449;SDS011;9354;50.194;7.690;2023-02-28T11:53:17;3.90;;;2.30;;
18449;SDS011;9354;50.194;7.690;2023-02-28T11:55:58;3.70;;;2.27;;
18449;SDS011;9354;50.194;7.690;2023-02-28T11:58:33;8.23;;;3.23;;
18449;SDS011;9354;50.194;7.690;2023-02-28T12:01:20;7.47;;;2.97;;
18449;SDS011;9354;50.194;7.690;2023-02-28T12:04:03;4.93;;;2.90;;
18449;SDS011;9354;50.194;7.690;2023-02-28T12:06:43;7.63;;;2.80;;
18449;SDS011;9354;50.194;7.690;2023-02-28T12:09:20;4.90;;;2.73;;
18449;SDS011;9354;50.194;7.690;2023-02-28T12:12:04;4.37;;;2.57;;
18449;SDS011;9354;50.194;7.690;2023-02-28T12:14:48;5.10;;;2.70;;
18449;SDS011;9354;50.194;7.690;2023-02-28T12:17:27;6.13;;;3.57;;
18449;SDS011;9354;50.194;7.690;2023-02-28T12:20:08;4.30;;;2.87;;
18449;SDS011;9354;50.194;7.690;2023-02-28T12:22:45;6.13;;;3.20;;
18449;SDS011;9354;50.194;7.690;2023-02-28T12:28:20;5.20;;;3.00;;
18449;SDS011;9354;50.194;7.690;2023-02-28T12:30:51;5.60;;;3.30;;
18449;SDS011;9354;50.194;7.690;2023-02-28T12:33:24;7.90;;;3.37;;
18449;SDS011;9354;50.194;7.690;2023-02-28T12:35:56;5.73;;;3.00;;
18449;SDS011;9354;50.194;7.690;2023-02-28T12:38:26;7.03;;;2.93;;
18449;SDS011;9354;50.194;7.690;2023-02-28T12:40:59;3.00;;;1.97;;
18449;SDS011;9354;50.194;7.690;2023-02-28T12:43:31;4.60;;;2.77;;
18449;SDS011;9354;50.194;7.690;2023-02-28T12:46:02;6.23;;;3.37;;
18449;SDS011;9354;50.194;7.690;2023-02-28T12:48:37;5.43;;;3.27;;
18449;SDS011;9354;50.194;7.690;2023-02-28T12:51:09;5.77;;;3.20;;
18449;SDS011;9354;50.194;7.690;2023-02-28T12:53:42;4.63;;;3.10;;
18449;SDS011;9354;50.194;7.690;2023-02-28T12:56:27;6.30;;;3.00;;
18449;SDS011;9354;50.194;7.690;2023-02-28T12:59:04;7.30;;;3.23;;
18449;SDS011;9354;50.194;7.690;2023-02-28T13:04:58;5.07;;;2.73;;
18449;SDS011;9354;50.194;7.690;2023-02-28T13:07:42;9.20;;;3.50;;
18449;SDS011;9354;50.194;7.690;2023-02-28T13:13:20;6.03;;;3.50;;
18449;SDS011;9354;50.194;7.690;2023-02-28T13:15:59;5.30;;;3.03;;
18449;SDS011;9354;50.194;7.690;2023-02-28T13:18:30;5.53;;;3.10;;
18449;SDS011;9354;50.194;7.690;2023-02-28T13:21:01;4.87;;;3.10;;
18449;SDS011;9354;50.194;7.690;2023-02-28T13:23:36;5.77;;;3.30;;
18449;SDS011;9354;50.194;7.690;2023-02-28T13:26:06;5.90;;;3.33;;
18449;SDS011;9354;50.194;7.690;2023-02-28T13:28:56;5.10;;;3.20;;
18449;SDS011;9354;50.194;7.690;2023-02-28T13:31:26;5.70;;;3.27;;
18449;SDS011;9354;50.194;7.690;2023-02-28T13:34:04;6.27;;;3.60;;
18449;SDS011;9354;50.194;7.690;2023-02-28T13:36:39;7.80;;;3.50;;
18449;SDS011;9354;50.194;7.690;2023-02-28T13:45:22;6.33;;;3.03;;
18449;SDS011;9354;50.194;7.690;2023-02-28T13:47:54;10.70;;;4.27;;
18449;SDS011;9354;50.194;7.690;2023-02-28T13:50:29;5.53;;;3.50;;
18449;SDS011;9354;50.194;7.690;2023-02-28T13:56:03;7.13;;;3.90;;
18449;SDS011;9354;50.194;7.690;2023-02-28T13:58:41;6.70;;;3.37;;
18449;SDS011;9354;50.194;7.690;2023-02-28T14:07:21;6.67;;;3.47;;
18449;SDS011;9354;50.194;7.690;2023-02-28T14:09:55;6.87;;;3.70;;
18449;SDS011;9354;50.194;7.690;2023-02-28T14:21:01;5.90;;;3.40;;
18449;SDS011;9354;50.194;7.690;2023-02-28T14:24:13;8.03;;;3.80;;
18449;SDS011;9354;50.194;7.690;2023-02-28T14:27:09;6.20;;;3.57;;
18449;SDS011;9354;50.194;7.690;2023-02-28T14:29:54;7.80;;;3.97;;
18449;SDS011;9354;50.194;7.690;2023-02-28T14:32:32;5.73;;;3.43;;
18449;SDS011;9354;50.194;7.690;2023-02-28T14:35:10;6.50;;;3.90;;
18449;SDS011;9354;50.194;7.690;2023-02-28T14:37:45;6.17;;;3.97;;
18449;SDS011;9354;50.194;7.690;2023-02-28T14:40:17;6.63;;;4.00;;
18449;SDS011;9354;50.194;7.690;2023-02-28T14:42:54;6.07;;;3.53;;
18449;SDS011;9354;50.194;7.690;2023-02-28T14:45:23;9.33;;;3.80;;
18449;SDS011;9354;50.194;7.690;2023-02-28T14:47:58;8.13;;;3.97;;
18449;SDS011;9354;50.194;7.690;2023-02-28T14:50:29;6.47;;;3.80;;
18449;SDS011;9354;50.194;7.690;2023-02-28T14:52:59;6.23;;;3.80;;
18449;SDS011;9354;50.194;7.690;2023-02-28T14:55:30;9.40;;;4.03;;
18449;SDS011;9354;50.194;7.690;2023-02-28T14:58:01;6.53;;;3.60;;
18449;SDS011;9354;50.194;7.690;2023-02-28T15:00:30;7.37;;;3.93;;
18449;SDS011;9354;50.194;7.690;2023-02-28T15:02:59;6.07;;;3.63;;
18449;SDS011;9354;50.194;7.690;2023-02-28T15:05:29;7.40;;;4.00;;
18449;SDS011;9354;50.194;7.690;2023-02-28T15:08:03;6.87;;;3.67;;
18449;SDS011;9354;50.194;7.690;2023-02-28T15:10:34;6.40;;;3.63;;
18449;SDS011;9354;50.194;7.690;2023-02-28T15:13:02;5.77;;;3.60;;
18449;SDS011;9354;50.194;7.690;2023-02-28T15:15:35;7.43;;;3.73;;
18449;SDS011;9354;50.194;7.690;2023-02-28T15:18:11;7.33;;;3.87;;
18449;SDS011;9354;50.194;7.690;2023-02-28T15:20:46;8.43;;;4.00;;
18449;SDS011;9354;50.194;7.690;2023-02-28T15:23:14;6.37;;;3.37;;
18449;SDS011;9354;50.194;7.690;2023-02-28T15:26:00;11.07;;;4.40;;
18449;SDS011;9354;50.194;7.690;2023-02-28T15:28:28;5.60;;;3.40;;
18449;SDS011;9354;50.194;7.690;2023-02-28T15:30:57;6.20;;;3.13;;
18449;SDS011;9354;50.194;7.690;2023-02-28T15:33:27;6.03;;;3.57;;
18449;SDS011;9354;50.194;7.690;2023-02-28T15:36:05;8.27;;;4.13;;
18449;SDS011;9354;50.194;7.690;2023-02-28T15:38:38;7.43;;;3.90;;
18449;SDS011;9354;50.194;7.690;2023-02-28T15:41:21;5.53;;;3.33;;
18449;SDS011;9354;50.194;7.690;2023-02-28T15:46:58;6.80;;;3.90;;
18449;SDS011;9354;50.194;7.690;2023-02-28T15:49:28;6.17;;;3.37;;
18449;SDS011;9354;50.194;7.690;2023-02-28T15:52:01;6.83;;;3.60;;
18449;SDS011;9354;50.194;7.690;2023-02-28T15:54:30;6.70;;;4.10;;
18449;SDS011;9354;50.194;7.690;2023-02-28T15:57:03;8.40;;;3.90;;
18449;SDS011;9354;50.194;7.690;2023-02-28T15:59:34;8.73;;;3.37;;
18449;SDS011;9354;50.194;7.690;2023-02-28T16:02:13;9.40;;;3.60;;
18449;SDS011;9354;50.194;7.690;2023-02-28T16:04:58;8.30;;;3.50;;
18449;SDS011;9354;50.194;7.690;2023-02-28T16:07:46;6.87;;;3.17;;
18449;SDS011;9354;50.194;7.690;2023-02-28T16:16:30;7.77;;;3.43;;
18449;SDS011;9354;50.194;7.690;2023-02-28T16:18:59;6.03;;;3.40;;
18449;SDS011;9354;50.194;7.690;2023-02-28T16:21:27;6.47;;;3.50;;
18449;SDS011;9354;50.194;7.690;2023-02-28T16:23:54;7.07;;;3.67;;
18449;SDS011;9354;50.194;7.690;2023-02-28T16:26:23;11.77;;;3.60;;